Time Latitude Longitude Accuracy (66% radius in meters) Altitude (meters) Speed (km/hour) Bearing (degrees) Battery (%) GPS flag
11:52:30 60.371050 29.556080 0 0 0 0 1 delete
11:52:29 60.371043 29.556093 0 0 0 0 1 delete
11:52:28 60.371039 29.556116 0 0 0 0 1 delete
11:52:27 60.371037 29.556142 0 0 0 0 1 delete
11:52:26 60.371037 29.556164 0 0 0 0 1 delete
11:52:25 60.371039 29.556174 0 0 0 0 1 delete
11:52:24 60.371041 29.556177 0 0 0 0 1 delete
11:52:23 60.371042 29.556178 0 0 0 0 1 delete
11:52:22 60.371042 29.556178 0 0 0 0 1 delete
11:52:21 60.371042 29.556178 0 0 0 0 1 delete
11:52:20 60.371042 29.556177 0 0 0 0 1 delete
11:52:19 60.371042 29.556177 0 0 0 0 1 delete
11:52:18 60.371042 29.556177 0 0 0 0 1 delete
11:52:17 60.371042 29.556177 0 0 0 0 1 delete
11:52:16 60.371042 29.556177 0 0 0 0 1 delete
11:52:15 60.371042 29.556177 0 0 0 0 1 delete
11:52:14 60.371042 29.556177 0 0 0 0 1 delete
11:52:13 60.371042 29.556177 0 0 0 0 1 delete
11:52:12 60.371042 29.556177 0 0 0 0 1 delete
11:52:11 60.371042 29.556176 0 0 0 0 1 delete
11:52:10 60.371042 29.556176 0 0 0 0 1 delete
11:52:09 60.371042 29.556176 0 0 0 0 1 delete
11:52:08 60.371042 29.556175 0 0 0 0 1 delete
11:52:07 60.371042 29.556171 0 0 0 0 1 delete
11:52:06 60.371043 29.556167 0 0 0 0 1 delete
11:52:05 60.371054 29.556176 0 0 0 0 1 delete
11:52:04 60.371060 29.556182 0 0 0 0 1 delete
11:52:03 60.371061 29.556182 0 0 0 0 1 delete
11:52:02 60.371061 29.556182 0 0 0 0 1 delete
11:52:01 60.371061 29.556182 0 0 0 0 1 delete
11:52:00 60.371061 29.556182 0 0 0 0 1 delete
11:51:59 60.371061 29.556182 0 0 0 0 1 delete
11:51:58 60.371061 29.556182 0 0 0 0 1 delete
11:51:57 60.371061 29.556182 0 0 0 0 1 delete
11:51:56 60.371061 29.556182 0 0 0 0 1 delete
11:51:55 60.371061 29.556181 0 0 0 0 1 delete
11:51:54 60.371061 29.556181 0 0 0 0 1 delete
11:51:53 60.371062 29.556181 0 0 0 0 1 delete
11:51:52 60.371062 29.556181 0 0 0 0 1 delete
11:51:51 60.371062 29.556181 0 0 0 0 1 delete
11:51:50 60.371062 29.556181 0 0 0 0 1 delete
11:51:49 60.371063 29.556180 0 0 0 0 1 delete
11:51:48 60.371063 29.556180 0 0 0 0 1 delete
11:51:47 60.371064 29.556180 0 0 0 0 1 delete
11:51:46 60.371064 29.556181 0 0 0 0 1 delete
11:51:45 60.371066 29.556182 0 0 0 0 1 delete
11:51:44 60.371067 29.556183 0 0 0 0 1 delete
11:51:43 60.371068 29.556184 0 0 0 0 1 delete
11:51:42 60.371070 29.556185 0 0 0 0 1 delete
11:51:41 60.371074 29.556190 0 0 0 0 1 delete